Time;durP1;ratioP1;P1;durP2;ratioP2;P2;SDS_P1;SDS_P2;PMS_P1;PMS_P2;Temp;Humidity;BMP_temperature;BMP_pressure;BME280_temperature;BME280_humidity;BME280_pressure;Samples;Min_cycle;Max_cycle;Signal;HPM_P1;HPM_P2
2024/03/29 11:33:33;;;;;;;0.93;0.00;;;;;;;;;;5046415;27;111449;-55
2024/03/29 11:35:59;;;;;;;3.58;0.10;;;;;;;;;;5015510;27;111741;-56
2024/03/29 11:39:23;;;;;;;2.30;0.00;;;;;;;;;;5074957;27;99815;-56
2024/03/29 11:41:49;;;;;;;0.63;0.00;;;;;;;;;;5037304;27;105974;-50
2024/03/29 11:44:14;;;;;;;2.35;0.10;;;;;;;;;;5054597;27;99955;-49
2024/03/29 11:46:40;;;;;;;0.82;0.10;;;;;;;;;;5055777;27;100498;-48
2024/03/29 11:49:06;;;;;;;4.80;0.10;;;;;;;;;;5058683;27;100103;-50
2024/03/29 11:51:32;;;;;;;0.30;0.00;;;;;;;;;;5054866;27;101954;-50
2024/03/29 11:53:57;;;;;;;7.32;0.80;;;;;;;;;;5057778;27;101424;-59
2024/03/29 11:59:38;;;;;;;0.35;0.00;;;;;;;;;;4972327;27;113572;-49
2024/03/29 12:02:12;;;;;;;0.93;0.00;;;;;;;;;;4965326;28;100089;-57
2024/03/29 13:12:02;;;;;;;3.85;0.17;;;;;;;;;;5029663;27;99873;-50
2024/03/29 13:14:28;;;;;;;4.85;0.70;;;;;;;;;;5010747;28;100073;-49
2024/03/29 13:16:53;;;;;;;4.57;0.38;;;;;;;;;;5017712;27;100319;-49
2024/03/29 13:19:18;;;;;;;1.75;0.20;;;;;;;;;;5013081;27;100204;-50
2024/03/29 13:29:18;;;;;;;5.00;0.55;;;;;;;;;;4957307;27;100452;-57
2024/03/29 13:31:45;;;;;;;7.72;0.77;;;;;;;;;;4936821;28;100278;-55
2024/03/29 15:39:32;;;;;;;2.20;0.10;;;;;;;;;;4981523;28;102284;-50
2024/03/29 15:41:57;;;;;;;1.52;0.30;;;;;;;;;;4970897;28;102844;-50
2024/03/29 15:44:22;;;;;;;4.05;0.30;;;;;;;;;;4973015;28;99916;-48
2024/03/29 15:46:47;;;;;;;5.55;0.30;;;;;;;;;;4975254;28;100181;-50
2024/03/29 15:49:13;;;;;;;5.63;0.40;;;;;;;;;;4967691;28;101810;-50
2024/03/29 15:51:38;;;;;;;3.83;0.30;;;;;;;;;;4979106;28;100514;-50
2024/03/29 15:54:06;;;;;;;2.95;0.25;;;;;;;;;;4973699;28;100968;-49
2024/03/29 15:56:34;;;;;;;2.10;0.20;;;;;;;;;;4978836;28;100932;-50
2024/03/29 15:58:59;;;;;;;1.70;0.20;;;;;;;;;;4981298;28;101596;-49
2024/03/29 16:01:25;;;;;;;0.70;0.17;;;;;;;;;;4979317;28;100252;-49
2024/03/29 16:03:50;;;;;;;3.65;0.40;;;;;;;;;;4978193;28;99664;-50
2024/03/29 16:06:16;;;;;;;1.73;0.10;;;;;;;;;;4972927;28;100124;-50
2024/03/29 16:08:41;;;;;;;1.52;0.20;;;;;;;;;;4976838;28;100035;-50
2024/03/29 16:11:07;;;;;;;1.83;0.20;;;;;;;;;;4975144;28;99737;-49
2024/03/29 16:13:33;;;;;;;1.67;0.10;;;;;;;;;;4973839;28;100173;-50
2024/03/29 16:16:00;;;;;;;2.55;0.20;;;;;;;;;;4978428;28;102271;-51
2024/03/29 16:18:27;;;;;;;1.88;0.20;;;;;;;;;;4979121;28;99682;-51
2024/03/29 16:20:54;;;;;;;1.85;0.38;;;;;;;;;;4977997;28;100281;-48
2024/03/29 16:23:19;;;;;;;2.33;0.10;;;;;;;;;;4976614;28;99778;-49
2024/03/29 16:25:47;;;;;;;3.55;0.30;;;;;;;;;;4977553;28;101420;-50
2024/03/29 16:28:15;;;;;;;3.10;0.20;;;;;;;;;;4974875;28;102987;-50
2024/03/29 16:30:46;;;;;;;1.70;0.20;;;;;;;;;;4978940;28;99637;-51
2024/03/29 16:33:11;;;;;;;1.05;0.10;;;;;;;;;;4977746;28;100863;-51
2024/03/29 16:35:37;;;;;;;2.08;0.15;;;;;;;;;;4974892;28;101837;-51
2024/03/29 16:38:03;;;;;;;1.67;0.20;;;;;;;;;;4975022;28;100151;-50
